AEST,Max TemperatureF,Mean TemperatureF,Min TemperatureF,Max Dew PointF,MeanDew PointF,Min DewpointF,Max Humidity, Mean Humidity, Min Humidity, Max Sea Level PressureIn, Mean Sea Level PressureIn, Min Sea Level PressureIn, Max VisibilityMiles, Mean VisibilityMiles, Min VisibilityMiles, Max Wind SpeedMPH, Mean Wind SpeedMPH, Max Gust SpeedMPH,PrecipitationIn, CloudCover, Events, WindDirDegrees
2013-10-1,86,78,70,67,65,61,83,64,36,30.06,30.00,29.92,19,7,6,17,9,,0.00,2,,140
2013-10-2,87,78,69,68,66,63,88,66,36,30.02,29.96,29.89,19,7,6,18,8,,0.00,2,,132
2013-10-3,84,76,69,70,68,64,94,75,43,29.97,29.91,29.83,19,7,6,12,4,,0.00,3,Rain,105
2013-10-4,86,77,68,70,67,63,94,70,44,29.99,29.92,29.86,19,7,6,18,7,,0.00,2,,134
2013-10-5,88,80,71,68,66,63,83,65,35,30.02,29.95,29.89,19,7,6,16,8,,0.00,2,Rain,134
2013-10-6,85,77,69,68,64,62,88,65,38,29.99,29.92,29.83,19,7,6,17,8,,0.00,2,,137
2013-10-7,84,75,66,66,64,61,94,68,43,29.94,29.89,29.83,19,7,6,15,9,,0.00,1,,114
2013-10-8,86,73,60,68,65,61,100,76,39,29.93,29.87,29.83,19,8,6,12,3,,0.00,1,,19
2013-10-9,89,74,59,70,64,59,100,70,34,30.04,29.95,29.86,19,7,6,18,7,,0.00,1,,126
2013-10-10,86,80,73,68,63,54,78,57,25,30.08,30.00,29.92,19,7,6,21,11,,0.00,3,,131
2013-10-11,86,77,68,64,60,55,83,55,27,30.02,29.96,29.89,19,7,6,17,9,,0.00,2,,123
2013-10-12,86,74,62,63,60,57,94,56,29,29.99,29.93,29.89,19,7,6,17,8,,0.00,2,,138
2013-10-13,87,78,68,73,67,62,83,66,43,29.98,29.92,29.86,19,6,6,14,9,,0.00,3,,111
2013-10-14,86,81,76,74,73,72,89,78,57,29.98,29.91,29.83,19,7,6,13,5,,0.00,3,Rain-Thunderstorm,44
2013-10-15,86,80,75,73,71,68,89,72,52,30.06,29.97,29.89,19,7,6,16,7,,0.00,5,,122
2013-10-16,86,78,71,73,69,68,100,70,50,30.08,30.01,29.95,19,7,2,17,10,,0.39,3,Rain,111
2013-10-17,84,78,71,70,69,66,94,74,49,30.06,30.00,29.92,19,7,6,13,7,,0.00,6,Rain,150
2013-10-18,85,79,73,72,69,66,94,73,53,30.05,29.98,29.92,19,7,6,15,8,,0.00,4,,131
2013-10-19,88,80,73,70,67,63,83,65,35,30.04,30.00,29.94,19,7,6,22,12,,0.00,2,Rain,152
2013-10-20,86,79,72,69,65,61,83,63,37,30.02,29.97,29.89,19,7,6,22,13,34,0.00,1,Rain,149
2013-10-21,86,79,72,68,65,57,83,65,31,29.97,29.92,29.86,19,7,6,23,12,,0.01,2,Rain,161
2013-10-22,82,76,69,73,69,64,100,83,56,29.96,29.92,29.86,19,6,1,18,11,,1.26,6,Rain,166
2013-10-23,86,78,71,72,70,66,100,75,44,29.97,29.91,29.83,19,7,3,16,11,,0.00,3,Rain,138
2013-10-24,84,76,69,70,68,65,94,72,49,29.96,29.90,29.86,19,7,6,13,6,,0.00,2,,103
2013-10-25,84,76,67,68,64,59,100,66,32,30.02,29.96,29.89,19,7,6,15,7,,0.00,1,,136
2013-10-26,87,79,71,84,66,59,94,63,30,30.06,30.00,29.95,19,7,6,20,11,,0.00,1,,147
2013-10-27,86,78,71,68,65,61,83,63,33,30.06,30.01,29.95,19,7,6,18,10,,0.00,1,,140
2013-10-28,87,79,71,65,63,59,78,58,34,30.06,30.01,29.95,19,7,6,20,10,,0.00,2,,144
2013-10-29,86,78,71,64,63,59,78,58,34,30.04,29.97,29.89,19,7,6,16,9,,0.00,2,,132
2013-10-30,82,74,66,68,65,64,94,70,46,29.98,29.92,29.86,19,7,6,14,6,,0.00,2,,356
2013-10-31,83,75,67,70,68,66,94,72,50,29.97,29.91,29.86,19,7,5,10,5,,0.00,2,,34